Time;durP1;ratioP1;P1;durP2;ratioP2;P2;SDS_P1;SDS_P2;PMS_P1;PMS_P2;Temp;Humidity;BMP_temperature;BMP_pressure;BME280_temperature;BME280_humidity;BME280_pressure;Samples;Min_cycle;Max_cycle;Signal;HPM_P1;HPM_P2
2022/04/15 00:01:15;;;;;;;;;;;;;;;;;;5112807;28;19908;-53
2022/04/15 00:03:43;;;;;;;;;;;;;;;;;;5094882;28;19919;-56
2022/04/15 00:06:10;;;;;;;;;;;;;;;;;;5092752;28;20235;-56
2022/04/15 00:08:36;;;;;;;;;;;;;;;;;;5093184;28;19953;-55
2022/04/15 00:11:03;;;;;;;;;;;;;;;;;;5095969;28;20370;-50
2022/04/15 00:13:31;;;;;;;;;;;;;;;;;;5095228;28;19914;-47
2022/04/15 00:15:57;;;;;;;;;;;;;;;;;;5096461;28;20007;-43
2022/04/15 00:18:24;;;;;;;;;;;;;;;;;;5096214;28;19916;-44
2022/04/15 00:20:52;;;;;;;;;;;;;;;;;;5096633;28;20416;-40
2022/04/15 00:23:20;;;;;;;;;;;;;;;;;;5096302;28;19991;-48
2022/04/15 00:25:46;;;;;;;;;;;;;;;;;;5096474;28;19908;-43
2022/04/15 00:28:13;;;;;;;;;;;;;;;;;;5096107;28;19915;-46
2022/04/15 00:30:39;;;;;;;;;;;;;;;;;;5096623;28;19908;-41
2022/04/15 00:33:06;;;;;;;;;;;;;;;;;;5096419;28;19957;-41
2022/04/15 00:35:32;;;;;;;;;;;;;;;;;;5096190;28;19908;-42
2022/04/15 00:37:59;;;;;;;;;;;;;;;;;;5096186;28;19921;-48
2022/04/15 00:40:25;;;;;;;;;;;;;;;;;;5096275;28;19919;-46
2022/04/15 00:42:52;;;;;;;;;;;;;;;;;;5096254;28;19915;-43
2022/04/15 00:45:18;;;;;;;;;;;;;;;;;;5096105;28;19990;-42
2022/04/15 00:47:45;;;;;;;;;;;;;;;;;;5095132;28;20355;-44
2022/04/15 00:50:11;;;;;;;;;;;;;;;;;;5095397;28;19915;-46
2022/04/15 00:52:38;;;;;;;;;;;;;;;;;;5095184;28;19991;-51
2022/04/15 00:55:04;;;;;;;;;;;;;;;;;;5095123;28;19909;-45
2022/04/15 00:57:31;;;;;;;;;;;;;;;;;;5094997;28;19970;-52
2022/04/15 00:59:57;;;;;;;;;;;;;;;;;;5094558;28;20342;-54
2022/04/15 01:02:23;;;;;;;;;;;;;;;;;;5094625;28;20101;-52
2022/04/15 01:04:50;;;;;;;;;;;;;;;;;;5094380;28;19920;-56
2022/04/15 01:07:16;;;;;;;;;;;;;;;;;;5094821;28;19908;-49
2022/04/15 01:09:43;;;;;;;;;;;;;;;;;;5094553;28;19919;-44
2022/04/15 01:12:10;;;;;;;;;;;;;;;;;;5094411;28;19908;-50
2022/04/15 01:14:36;;;;;;;;;;;;;;;;;;5094559;28;19912;-49
2022/04/15 01:17:03;;;;;;;;;;;;;;;;;;5094699;28;19955;-54
2022/04/15 01:19:29;;;;;;;;;;;;;;;;;;5094466;28;19935;-56
2022/04/15 01:21:56;;;;;;;;;;;;;;;;;;5104762;28;19952;-49
2022/04/15 01:24:23;;;;;;;;;;;;;;;;;;5114807;28;19957;-56
2022/04/15 01:26:49;;;;;;;;;;;;;;;;;;5104211;28;19915;-50
2022/04/15 01:29:16;;;;;;;;;;;;;;;;;;5094558;28;20000;-52
2022/04/15 01:31:43;;;;;;;;;;;;;;;;;;5094105;28;19912;-52
2022/04/15 01:34:09;;;;;;;;;;;;;;;;;;5094286;28;19909;-54
2022/04/15 01:36:35;;;;;;;;;;;;;;;;;;5114398;28;20054;-57
2022/04/15 01:39:02;;;;;;;;;;;;;;;;;;5113609;28;19930;-53
2022/04/15 01:41:28;;;;;;;;;;;;;;;;;;5114334;28;20359;-47
2022/04/15 01:43:55;;;;;;;;;;;;;;;;;;5099602;28;19951;-46
2022/04/15 01:46:21;;;;;;;;;;;;;;;;;;5093676;28;19908;-42
2022/04/15 01:48:48;;;;;;;;;;;;;;;;;;5093740;28;20282;-47
2022/04/15 01:51:14;;;;;;;;;;;;;;;;;;5093997;28;19908;-54
2022/04/15 01:53:41;;;;;;;;;;;;;;;;;;5093925;28;19927;-53
2022/04/15 01:56:07;;;;;;;;;;;;;;;;;;5093549;28;19916;-48
2022/04/15 01:58:34;;;;;;;;;;;;;;;;;;5093555;28;20358;-50
2022/04/15 02:01:00;;;;;;;;;;;;;;;;;;5093813;28;20264;-54
2022/04/15 02:03:27;;;;;;;;;;;;;;;;;;5093017;28;19939;-48
2022/04/15 02:05:53;;;;;;;;;;;;;;;;;;5093751;28;19969;-52
2022/04/15 02:08:20;;;;;;;;;;;;;;;;;;5099334;28;20354;-49
2022/04/15 02:10:46;;;;;;;;;;;;;;;;;;5113957;28;20350;-46
2022/04/15 02:13:12;;;;;;;;;;;;;;;;;;5113545;28;20348;-52
2022/04/15 02:15:39;;;;;;;;;;;;;;;;;;5113651;28;19911;-53
2022/04/15 02:18:05;;;;;;;;;;;;;;;;;;5114169;28;19915;-57
2022/04/15 02:20:32;;;;;;;;;;;;;;;;;;5113582;28;20377;-53
2022/04/15 02:22:58;;;;;;;;;;;;;;;;;;5113321;28;19907;-55
2022/04/15 02:25:25;;;;;;;;;;;;;;;;;;5113131;28;19915;-54
2022/04/15 02:27:51;;;;;;;;;;;;;;;;;;5113340;28;19995;-53
2022/04/15 02:30:18;;;;;;;;;;;;;;;;;;5113688;28;19988;-52
2022/04/15 02:32:44;;;;;;;;;;;;;;;;;;5113442;28;20341;-56
2022/04/15 02:35:11;;;;;;;;;;;;;;;;;;5113557;28;19908;-55
2022/04/15 02:37:37;;;;;;;;;;;;;;;;;;5113307;28;19908;-53
2022/04/15 02:40:04;;;;;;;;;;;;;;;;;;5113098;28;20281;-52
2022/04/15 02:42:30;;;;;;;;;;;;;;;;;;5111243;28;19979;-46
2022/04/15 02:44:57;;;;;;;;;;;;;;;;;;5093762;28;19915;-53
2022/04/15 02:47:23;;;;;;;;;;;;;;;;;;5093262;28;20046;-49
2022/04/15 02:49:50;;;;;;;;;;;;;;;;;;5093518;28;19916;-45
2022/04/15 02:52:16;;;;;;;;;;;;;;;;;;5092110;28;20007;-54
2022/04/15 02:54:43;;;;;;;;;;;;;;;;;;5093042;28;19912;-53
2022/04/15 02:57:09;;;;;;;;;;;;;;;;;;5092879;28;19908;-49
2022/04/15 02:59:36;;;;;;;;;;;;;;;;;;5093311;28;19916;-53
2022/04/15 03:02:02;;;;;;;;;;;;;;;;;;5092569;28;19994;-55
2022/04/15 03:04:29;;;;;;;;;;;;;;;;;;5092838;28;19916;-46
2022/04/15 03:06:55;;;;;;;;;;;;;;;;;;5092288;28;20007;-53
2022/04/15 03:09:22;;;;;;;;;;;;;;;;;;5092756;28;19908;-54
2022/04/15 03:11:48;;;;;;;;;;;;;;;;;;5092527;28;20284;-51
2022/04/15 03:14:17;;;;;;;;;;;;;;;;;;5092286;28;20014;-54
2022/04/15 03:16:44;;;;;;;;;;;;;;;;;;5092922;28;19912;-53
2022/04/15 03:19:10;;;;;;;;;;;;;;;;;;5092737;28;20003;-52
2022/04/15 03:21:36;;;;;;;;;;;;;;;;;;5098655;28;20001;-57
2022/04/15 03:24:03;;;;;;;;;;;;;;;;;;5111956;28;20042;-55
2022/04/15 03:26:30;;;;;;;;;;;;;;;;;;5113269;28;19908;-53
2022/04/15 03:28:56;;;;;;;;;;;;;;;;;;5113540;28;19947;-52
2022/04/15 03:31:23;;;;;;;;;;;;;;;;;;5112811;28;20493;-55
2022/04/15 03:33:49;;;;;;;;;;;;;;;;;;5112361;28;19908;-48
2022/04/15 03:36:15;;;;;;;;;;;;;;;;;;5112402;28;19974;-52
2022/04/15 03:38:42;;;;;;;;;;;;;;;;;;5112993;28;19969;-52
2022/04/15 03:41:08;;;;;;;;;;;;;;;;;;5103071;28;20341;-55
2022/04/15 03:43:35;;;;;;;;;;;;;;;;;;5092884;28;19908;-52
2022/04/15 03:46:01;;;;;;;;;;;;;;;;;;5096481;28;20005;-50
2022/04/15 03:48:28;;;;;;;;;;;;;;;;;;5113471;28;20068;-46
2022/04/15 03:50:54;;;;;;;;;;;;;;;;;;5116898;28;19908;-53
2022/04/15 03:53:21;;;;;;;;;;;;;;;;;;5116329;28;19947;-53
2022/04/15 03:55:47;;;;;;;;;;;;;;;;;;5116850;28;19908;-48
2022/04/15 03:58:16;;;;;;;;;;;;;;;;;;5114619;28;20407;-55
2022/04/15 04:00:42;;;;;;;;;;;;;;;;;;5116496;28;19999;-52
2022/04/15 04:03:09;;;;;;;;;;;;;;;;;;5114760;28;19984;-48
2022/04/15 04:05:35;;;;;;;;;;;;;;;;;;5114906;28;19977;-52
2022/04/15 04:08:02;;;;;;;;;;;;;;;;;;5115274;28;19908;-56
2022/04/15 04:10:33;;;;;;;;;;;;;;;;;;5115344;28;20594;-58
2022/04/15 04:13:00;;;;;;;;;;;;;;;;;;5116100;28;20026;-59
2022/04/15 04:15:27;;;;;;;;;;;;;;;;;;5114934;28;19930;-52
2022/04/15 04:17:55;;;;;;;;;;;;;;;;;;5115877;28;19916;-56
2022/04/15 04:20:22;;;;;;;;;;;;;;;;;;5115954;28;19998;-54
2022/04/15 04:22:48;;;;;;;;;;;;;;;;;;5116043;27;19912;-48
2022/04/15 04:25:15;;;;;;;;;;;;;;;;;;5115986;28;19908;-52
2022/04/15 04:27:41;;;;;;;;;;;;;;;;;;5115914;28;20370;-54
2022/04/15 04:30:08;;;;;;;;;;;;;;;;;;5115798;28;19976;-52
2022/04/15 04:32:34;;;;;;;;;;;;;;;;;;5115941;28;19914;-46
2022/04/15 04:35:01;;;;;;;;;;;;;;;;;;5115734;28;19962;-55
2022/04/15 04:37:27;;;;;;;;;;;;;;;;;;5111686;28;20282;-54
2022/04/15 04:39:54;;;;;;;;;;;;;;;;;;5095112;28;19916;-54
2022/04/15 04:42:20;;;;;;;;;;;;;;;;;;5095440;28;20355;-48
2022/04/15 04:44:47;;;;;;;;;;;;;;;;;;5095249;28;20356;-53
2022/04/15 04:47:13;;;;;;;;;;;;;;;;;;5094426;28;20274;-55
2022/04/15 04:49:40;;;;;;;;;;;;;;;;;;5095277;28;19909;-51
2022/04/15 04:52:06;;;;;;;;;;;;;;;;;;5102832;28;19908;-50
2022/04/15 04:54:33;;;;;;;;;;;;;;;;;;5115337;28;19907;-49
2022/04/15 04:57:00;;;;;;;;;;;;;;;;;;5115237;28;19918;-51
2022/04/15 04:59:28;;;;;;;;;;;;;;;;;;5114906;28;19916;-57
2022/04/15 05:01:54;;;;;;;;;;;;;;;;;;5115262;28;20373;-57
2022/04/15 05:04:21;;;;;;;;;;;;;;;;;;5114458;28;20438;-55
2022/04/15 05:06:47;;;;;;;;;;;;;;;;;;5115183;28;20277;-55
2022/04/15 05:09:15;;;;;;;;;;;;;;;;;;5114569;28;19907;-51
2022/04/15 05:11:42;;;;;;;;;;;;;;;;;;5114957;28;19994;-54
2022/04/15 05:14:08;;;;;;;;;;;;;;;;;;5112932;28;19959;-51
2022/04/15 05:16:34;;;;;;;;;;;;;;;;;;5115037;28;20002;-55
2022/04/15 05:19:01;;;;;;;;;;;;;;;;;;5115114;28;20361;-51
2022/04/15 05:21:27;;;;;;;;;;;;;;;;;;5114958;28;20350;-55
2022/04/15 05:23:54;;;;;;;;;;;;;;;;;;5115239;28;20258;-53
2022/04/15 05:26:20;;;;;;;;;;;;;;;;;;5114228;28;20350;-48
2022/04/15 05:28:47;;;;;;;;;;;;;;;;;;5114689;28;19907;-42
2022/04/15 05:31:13;;;;;;;;;;;;;;;;;;5114755;28;19930;-53
2022/04/15 05:33:40;;;;;;;;;;;;;;;;;;5114288;28;19919;-49
2022/04/15 05:36:06;;;;;;;;;;;;;;;;;;5114701;28;19907;-56
2022/04/15 05:38:33;;;;;;;;;;;;;;;;;;5114465;28;19923;-51
2022/04/15 05:40:59;;;;;;;;;;;;;;;;;;5114197;28;19907;-53
2022/04/15 05:43:25;;;;;;;;;;;;;;;;;;5114025;28;19915;-54
2022/04/15 05:45:52;;;;;;;;;;;;;;;;;;5114631;27;19963;-51
2022/04/15 05:48:18;;;;;;;;;;;;;;;;;;5114301;28;19908;-54
2022/04/15 05:50:45;;;;;;;;;;;;;;;;;;5114455;28;19914;-53
2022/04/15 05:53:12;;;;;;;;;;;;;;;;;;5114170;27;20278;-51
2022/04/15 05:55:38;;;;;;;;;;;;;;;;;;5113993;28;19951;-54
2022/04/15 05:58:07;;;;;;;;;;;;;;;;;;5114063;28;20413;-57
2022/04/15 06:00:34;;;;;;;;;;;;;;;;;;5114386;28;19914;-56
2022/04/15 06:03:00;;;;;;;;;;;;;;;;;;5113442;28;19951;-52
2022/04/15 06:05:27;;;;;;;;;;;;;;;;;;5113624;28;19919;-56
2022/04/15 06:07:53;;;;;;;;;;;;;;;;;;5113545;28;19920;-48
2022/04/15 06:10:20;;;;;;;;;;;;;;;;;;5113560;28;20338;-49
2022/04/15 06:13:02;;;;;;;;;;;;;;;;;;5113774;28;19998;-57
2022/04/15 06:15:31;;;;;;;;;;;;;;;;;;5113511;28;20346;-51
2022/04/15 06:17:57;;;;;;;;;;;;;;;;;;5113802;27;19943;-52
2022/04/15 06:20:24;;;;;;;;;;;;;;;;;;5113516;28;19922;-53
2022/04/15 06:22:50;;;;;;;;;;;;;;;;;;5113357;28;20335;-47
2022/04/15 06:25:16;;;;;;;;;;;;;;;;;;5113204;28;20429;-54
2022/04/15 06:27:43;;;;;;;;;;;;;;;;;;5112520;28;19919;-49
2022/04/15 06:30:09;;;;;;;;;;;;;;;;;;5113571;28;20014;-51
2022/04/15 06:32:36;;;;;;;;;;;;;;;;;;5113579;28;19908;-47
2022/04/15 06:35:07;;;;;;;;;;;;;;;;;;5112823;28;19995;-53
2022/04/15 06:37:34;;;;;;;;;;;;;;;;;;5113455;28;19907;-53
2022/04/15 06:40:00;;;;;;;;;;;;;;;;;;5113068;28;20355;-55
2022/04/15 06:42:27;;;;;;;;;;;;;;;;;;5113525;28;19908;-52
2022/04/15 06:44:54;;;;;;;;;;;;;;;;;;5113365;28;19916;-54
2022/04/15 06:47:20;;;;;;;;;;;;;;;;;;5112282;28;20008;-53
2022/04/15 06:49:47;;;;;;;;;;;;;;;;;;5113911;28;19915;-52
2022/04/15 06:52:13;;;;;;;;;;;;;;;;;;5113280;28;20068;-51
2022/04/15 06:54:40;;;;;;;;;;;;;;;;;;5112927;28;19908;-54
2022/04/15 06:57:07;;;;;;;;;;;;;;;;;;5112958;28;20309;-59
2022/04/15 06:59:33;;;;;;;;;;;;;;;;;;5112882;28;19919;-52
2022/04/15 07:02:01;;;;;;;;;;;;;;;;;;5113498;28;20270;-53
2022/04/15 07:04:27;;;;;;;;;;;;;;;;;;5113135;28;19922;-50
2022/04/15 07:06:54;;;;;;;;;;;;;;;;;;5113000;28;19987;-57
2022/04/15 07:09:20;;;;;;;;;;;;;;;;;;5112786;28;19907;-53
2022/04/15 07:11:47;;;;;;;;;;;;;;;;;;5112771;28;19908;-53
2022/04/15 07:14:13;;;;;;;;;;;;;;;;;;5113250;28;19919;-59
2022/04/15 07:16:40;;;;;;;;;;;;;;;;;;5112707;28;19953;-53
2022/04/15 07:19:07;;;;;;;;;;;;;;;;;;5116319;28;19960;-56
2022/04/15 07:21:33;;;;;;;;;;;;;;;;;;5117616;28;19947;-56
2022/04/15 07:24:00;;;;;;;;;;;;;;;;;;5116920;28;19950;-49
2022/04/15 07:26:26;;;;;;;;;;;;;;;;;;5116798;28;19908;-54
2022/04/15 07:28:53;;;;;;;;;;;;;;;;;;5117140;28;20048;-52
2022/04/15 07:31:19;;;;;;;;;;;;;;;;;;5117041;28;19915;-47
2022/04/15 07:33:46;;;;;;;;;;;;;;;;;;5116993;28;19904;-55
2022/04/15 07:38:57;;;;;;;;;;;;;;;;;;5096668;28;19923;-56
2022/04/15 07:41:23;;;;;;;;;;;;;;;;;;5096553;28;19938;-55
2022/04/15 07:43:50;;;;;;;;;;;;;;;;;;5096237;28;19908;-49
2022/04/15 07:46:16;;;;;;;;;;;;;;;;;;5116200;28;19908;-50
2022/04/15 07:48:43;;;;;;;;;;;;;;;;;;5116217;28;19956;-53
2022/04/15 07:51:09;;;;;;;;;;;;;;;;;;5117211;28;20184;-47
2022/04/15 07:53:36;;;;;;;;;;;;;;;;;;5117430;28;19999;-50
2022/04/15 07:56:02;;;;;;;;;;;;;;;;;;5117583;28;20354;-49
2022/04/15 07:58:29;;;;;;;;;;;;;;;;;;5117198;28;19912;-51
2022/04/15 08:00:55;;;;;;;;;;;;;;;;;;5117452;28;20277;-45
2022/04/15 08:03:22;;;;;;;;;;;;;;;;;;5117308;28;20247;-46
2022/04/15 08:05:48;;;;;;;;;;;;;;;;;;5117075;28;19974;-51
2022/04/15 08:08:15;;;;;;;;;;;;;;;;;;5117420;28;19908;-48
2022/04/15 08:10:41;;;;;;;;;;;;;;;;;;5117139;28;19907;-45
2022/04/15 08:13:08;;;;;;;;;;;;;;;;;;5114746;28;19908;-48
2022/04/15 08:15:34;;;;;;;;;;;;;;;;;;5094997;28;19931;-45
2022/04/15 08:18:01;;;;;;;;;;;;;;;;;;5095164;28;19912;-50
2022/04/15 08:20:27;;;;;;;;;;;;;;;;;;5096511;28;19912;-47
2022/04/15 08:22:54;;;;;;;;;;;;;;;;;;5094297;28;19912;-54
2022/04/15 08:25:20;;;;;;;;;;;;;;;;;;5095609;28;19913;-54
2022/04/15 08:27:47;;;;;;;;;;;;;;;;;;5095799;28;19915;-52
2022/04/15 08:30:13;;;;;;;;;;;;;;;;;;5095131;28;19908;-54
2022/04/15 08:32:40;;;;;;;;;;;;;;;;;;5095800;28;19908;-53
2022/04/15 08:35:06;;;;;;;;;;;;;;;;;;5095410;28;20003;-55
2022/04/15 08:37:35;;;;;;;;;;;;;;;;;;5104783;28;19976;-56
2022/04/15 08:40:02;;;;;;;;;;;;;;;;;;5116074;28;19966;-57
2022/04/15 08:42:28;;;;;;;;;;;;;;;;;;5115934;28;19908;-55
2022/04/15 08:44:56;;;;;;;;;;;;;;;;;;5115860;28;20098;-56
2022/04/15 08:47:24;;;;;;;;;;;;;;;;;;5115194;28;19907;-53
2022/04/15 08:49:50;;;;;;;;;;;;;;;;;;5115286;27;19907;-52
2022/04/15 08:52:17;;;;;;;;;;;;;;;;;;5115787;28;19908;-52
2022/04/15 08:54:43;;;;;;;;;;;;;;;;;;5115783;28;19934;-53
2022/04/15 08:57:10;;;;;;;;;;;;;;;;;;5114988;28;19930;-54
2022/04/15 08:59:36;;;;;;;;;;;;;;;;;;5115315;28;19987;-57
2022/04/15 09:02:03;;;;;;;;;;;;;;;;;;5115619;27;19919;-53
2022/04/15 09:04:29;;;;;;;;;;;;;;;;;;5114807;28;20367;-55
2022/04/15 09:06:56;;;;;;;;;;;;;;;;;;5114997;28;20064;-54
2022/04/15 09:09:29;;;;;;;;;;;;;;;;;;5114904;28;19908;-47
2022/04/15 09:11:56;;;;;;;;;;;;;;;;;;5115308;28;20398;-55
2022/04/15 09:14:23;;;;;;;;;;;;;;;;;;5114995;28;19911;-52
2022/04/15 09:16:49;;;;;;;;;;;;;;;;;;5114996;28;19995;-53
2022/04/15 09:19:16;;;;;;;;;;;;;;;;;;5114825;28;19916;-49
2022/04/15 09:21:44;;;;;;;;;;;;;;;;;;5114976;28;19961;-49
2022/04/15 09:24:11;;;;;;;;;;;;;;;;;;5115065;28;19960;-57
2022/04/15 09:26:38;;;;;;;;;;;;;;;;;;5074508;28;20011;-53
2022/04/15 09:29:04;;;;;;;;;;;;;;;;;;5074266;28;19909;-51
2022/04/15 09:31:31;;;;;;;;;;;;;;;;;;5073829;28;19912;-53
2022/04/15 09:33:57;;;;;;;;;;;;;;;;;;5078970;28;19908;-48
2022/04/15 09:36:23;;;;;;;;;;;;;;;;;;5094246;28;19919;-53
2022/04/15 09:38:50;;;;;;;;;;;;;;;;;;5092954;28;19916;-49
2022/04/15 09:41:17;;;;;;;;;;;;;;;;;;5104340;28;19908;-46
2022/04/15 09:43:43;;;;;;;;;;;;;;;;;;5114748;28;19919;-48
2022/04/15 09:46:10;;;;;;;;;;;;;;;;;;5114418;28;19907;-51
2022/04/15 09:48:36;;;;;;;;;;;;;;;;;;5114419;28;19908;-49
2022/04/15 09:51:03;;;;;;;;;;;;;;;;;;5114508;28;19915;-49
2022/04/15 09:53:29;;;;;;;;;;;;;;;;;;5113999;28;19908;-54
2022/04/15 09:55:55;;;;;;;;;;;;;;;;;;5114766;28;20434;-55
2022/04/15 09:58:23;;;;;;;;;;;;;;;;;;5114407;28;19919;-52
2022/04/15 10:00:51;;;;;;;;;;;;;;;;;;5114369;28;19989;-54
2022/04/15 10:03:18;;;;;;;;;;;;;;;;;;5114243;28;20282;-50
2022/04/15 10:05:44;;;;;;;;;;;;;;;;;;5113967;28;20259;-50
2022/04/15 10:08:11;;;;;;;;;;;;;;;;;;5114056;28;19907;-49
2022/04/15 10:10:37;;;;;;;;;;;;;;;;;;5114410;28;20353;-49
2022/04/15 10:13:07;;;;;;;;;;;;;;;;;;5114163;28;19980;-51
2022/04/15 10:15:33;;;;;;;;;;;;;;;;;;5094054;28;19912;-48
2022/04/15 10:18:00;;;;;;;;;;;;;;;;;;5093704;28;19931;-52
2022/04/15 10:20:27;;;;;;;;;;;;;;;;;;5093271;28;19912;-51
2022/04/15 10:22:53;;;;;;;;;;;;;;;;;;5093510;28;19935;-51
2022/04/15 10:25:20;;;;;;;;;;;;;;;;;;5093369;28;19905;-53
2022/04/15 10:27:46;;;;;;;;;;;;;;;;;;5093791;28;19908;-58
2022/04/15 10:30:12;;;;;;;;;;;;;;;;;;5093334;28;19962;-48
2022/04/15 10:32:39;;;;;;;;;;;;;;;;;;5091935;28;19993;-56
2022/04/15 10:35:05;;;;;;;;;;;;;;;;;;5092832;28;20376;-57
2022/04/15 10:37:32;;;;;;;;;;;;;;;;;;5093581;28;20247;-53
2022/04/15 10:39:58;;;;;;;;;;;;;;;;;;5093499;28;20259;-48
2022/04/15 10:42:25;;;;;;;;;;;;;;;;;;5100459;28;19943;-56
2022/04/15 10:44:51;;;;;;;;;;;;;;;;;;5113626;28;19907;-53
2022/04/15 10:47:19;;;;;;;;;;;;;;;;;;5113720;28;19976;-52
2022/04/15 10:49:45;;;;;;;;;;;;;;;;;;5113035;28;19919;-55
2022/04/15 10:52:12;;;;;;;;;;;;;;;;;;5113565;28;19954;-56
2022/04/15 10:54:38;;;;;;;;;;;;;;;;;;5113279;28;19908;-52
2022/04/15 10:57:05;;;;;;;;;;;;;;;;;;5113403;28;19908;-52
2022/04/15 11:02:16;;;;;;;;;;;;;;;;;;5113061;28;19918;-51
2022/04/15 11:04:42;;;;;;;;;;;;;;;;;;5113279;28;19966;-55
2022/04/15 11:07:09;;;;;;;;;;;;;;;;;;5113155;28;19911;-54
2022/04/15 11:09:35;;;;;;;;;;;;;;;;;;5113499;28;20002;-56
2022/04/15 11:12:02;;;;;;;;;;;;;;;;;;5113452;28;19904;-54
2022/04/15 11:14:28;;;;;;;;;;;;;;;;;;5113205;28;19951;-56
2022/04/15 11:16:55;;;;;;;;;;;;;;;;;;5113349;28;20314;-52
2022/04/15 11:19:21;;;;;;;;;;;;;;;;;;5112487;28;20430;-53
2022/04/15 11:21:50;;;;;;;;;;;;;;;;;;5112508;28;19908;-55
2022/04/15 11:24:16;;;;;;;;;;;;;;;;;;5113375;28;20415;-53
2022/04/15 11:26:43;;;;;;;;;;;;;;;;;;5113027;28;19912;-52
2022/04/15 11:29:11;;;;;;;;;;;;;;;;;;5112229;28;19908;-56
2022/04/15 11:31:37;;;;;;;;;;;;;;;;;;5113516;28;19968;-49
2022/04/15 11:34:04;;;;;;;;;;;;;;;;;;5113221;28;20002;-52
2022/04/15 11:36:30;;;;;;;;;;;;;;;;;;5112710;28;19915;-52
2022/04/15 11:38:57;;;;;;;;;;;;;;;;;;5113142;28;19998;-46
2022/04/15 11:41:23;;;;;;;;;;;;;;;;;;5112768;28;20281;-52
2022/04/15 11:43:50;;;;;;;;;;;;;;;;;;5112627;28;19970;-55
2022/04/15 11:46:16;;;;;;;;;;;;;;;;;;5112903;28;19908;-50
2022/04/15 11:48:43;;;;;;;;;;;;;;;;;;5112638;28;19928;-52
2022/04/15 11:51:09;;;;;;;;;;;;;;;;;;5112923;28;20412;-52
2022/04/15 11:53:35;;;;;;;;;;;;;;;;;;5113129;28;20037;-56
2022/04/15 11:56:02;;;;;;;;;;;;;;;;;;5112622;28;20278;-55
2022/04/15 11:58:29;;;;;;;;;;;;;;;;;;5112674;28;19935;-52
2022/04/15 12:00:55;;;;;;;;;;;;;;;;;;5112808;28;19908;-53
2022/04/15 12:03:22;;;;;;;;;;;;;;;;;;5112674;28;19915;-56
2022/04/15 12:05:48;;;;;;;;;;;;;;;;;;5115520;28;19924;-55
2022/04/15 12:08:15;;;;;;;;;;;;;;;;;;5116957;28;19974;-51
2022/04/15 12:10:41;;;;;;;;;;;;;;;;;;5116602;28;19907;-49
2022/04/15 12:13:08;;;;;;;;;;;;;;;;;;5116416;28;19929;-54
2022/04/15 12:15:34;;;;;;;;;;;;;;;;;;5116366;28;19908;-51
2022/04/15 12:18:01;;;;;;;;;;;;;;;;;;5116500;28;20212;-52
2022/04/15 12:20:29;;;;;;;;;;;;;;;;;;5116234;27;20324;-55
2022/04/15 12:22:55;;;;;;;;;;;;;;;;;;5113508;28;19998;-49
2022/04/15 12:25:22;;;;;;;;;;;;;;;;;;5095584;28;19915;-55
2022/04/15 12:27:48;;;;;;;;;;;;;;;;;;5095464;28;19961;-50
2022/04/15 12:30:15;;;;;;;;;;;;;;;;;;5095245;28;19908;-55
2022/04/15 12:32:42;;;;;;;;;;;;;;;;;;5095800;28;19985;-53
2022/04/15 12:35:12;;;;;;;;;;;;;;;;;;5095505;28;19931;-52
2022/04/15 12:37:39;;;;;;;;;;;;;;;;;;5095122;28;19915;-52
2022/04/15 12:40:05;;;;;;;;;;;;;;;;;;5095230;28;19916;-53
2022/04/15 12:42:32;;;;;;;;;;;;;;;;;;5095439;28;19908;-52
2022/04/15 12:45:00;;;;;;;;;;;;;;;;;;5094928;28;19904;-53
2022/04/15 12:47:26;;;;;;;;;;;;;;;;;;5095208;28;20315;-57
2022/04/15 12:49:53;;;;;;;;;;;;;;;;;;5104541;28;19983;-57
2022/04/15 12:52:19;;;;;;;;;;;;;;;;;;5115705;28;20339;-58
2022/04/15 12:54:46;;;;;;;;;;;;;;;;;;5115444;27;20002;-49
2022/04/15 12:57:12;;;;;;;;;;;;;;;;;;5114846;28;19915;-51
2022/04/15 12:59:38;;;;;;;;;;;;;;;;;;5115698;28;19966;-55
2022/04/15 13:02:05;;;;;;;;;;;;;;;;;;5115221;28;20423;-51
2022/04/15 13:04:31;;;;;;;;;;;;;;;;;;5114929;28;20524;-49
2022/04/15 13:06:58;;;;;;;;;;;;;;;;;;5115334;28;20264;-55
2022/04/15 13:09:24;;;;;;;;;;;;;;;;;;5114994;28;19946;-54
2022/04/15 13:11:53;;;;;;;;;;;;;;;;;;5115733;28;19953;-54
2022/04/15 13:14:19;;;;;;;;;;;;;;;;;;5115604;28;19960;-53
2022/04/15 13:16:46;;;;;;;;;;;;;;;;;;5115230;28;19914;-50
2022/04/15 13:19:12;;;;;;;;;;;;;;;;;;5114662;28;20384;-53
2022/04/15 13:21:39;;;;;;;;;;;;;;;;;;5114743;27;20365;-47
2022/04/15 13:24:05;;;;;;;;;;;;;;;;;;5115078;28;19915;-54
2022/04/15 13:26:32;;;;;;;;;;;;;;;;;;5115147;27;19908;-51
2022/04/15 13:28:58;;;;;;;;;;;;;;;;;;5114894;28;19908;-51
2022/04/15 13:31:25;;;;;;;;;;;;;;;;;;5114327;28;19907;-54
2022/04/15 13:33:51;;;;;;;;;;;;;;;;;;5114816;28;20431;-52
2022/04/15 13:36:18;;;;;;;;;;;;;;;;;;5114678;28;20254;-49
2022/04/15 13:38:44;;;;;;;;;;;;;;;;;;5115099;28;19923;-55
2022/04/15 13:41:14;;;;;;;;;;;;;;;;;;5114484;28;19908;-41
2022/04/15 13:43:40;;;;;;;;;;;;;;;;;;5114787;28;19912;-49
2022/04/15 13:46:07;;;;;;;;;;;;;;;;;;5114798;28;19931;-54
2022/04/15 13:48:33;;;;;;;;;;;;;;;;;;5114497;28;20003;-54
2022/04/15 13:50:59;;;;;;;;;;;;;;;;;;5113810;28;19908;-53
2022/04/15 13:58:56;;;;;;;;;;;;;;;;;;5114295;28;20376;-47
2022/04/15 14:01:26;;;;;;;;;;;;;;;;;;5114616;28;19908;-55
2022/04/15 14:03:53;;;;;;;;;;;;;;;;;;5112453;28;20370;-55
2022/04/15 14:06:19;;;;;;;;;;;;;;;;;;5114571;28;20365;-53
2022/04/15 14:08:45;;;;;;;;;;;;;;;;;;5114829;28;19908;-55
2022/04/15 14:11:15;;;;;;;;;;;;;;;;;;5103179;28;19953;-54
2022/04/15 14:13:44;;;;;;;;;;;;;;;;;;5094163;28;19908;-55
2022/04/15 14:16:11;;;;;;;;;;;;;;;;;;5094107;28;20373;-55
2022/04/15 14:18:37;;;;;;;;;;;;;;;;;;5093892;28;19912;-56
2022/04/15 14:21:04;;;;;;;;;;;;;;;;;;5102561;28;19915;-52
2022/04/15 14:23:31;;;;;;;;;;;;;;;;;;5114005;28;20003;-56
2022/04/15 14:25:57;;;;;;;;;;;;;;;;;;5113926;28;20323;-54
2022/04/15 14:28:29;;;;;;;;;;;;;;;;;;5113498;28;19915;-51
2022/04/15 14:30:55;;;;;;;;;;;;;;;;;;5113815;28;19915;-51
2022/04/15 14:33:22;;;;;;;;;;;;;;;;;;5113631;28;19987;-52
2022/04/15 14:35:48;;;;;;;;;;;;;;;;;;5114311;28;20314;-55
2022/04/15 14:38:15;;;;;;;;;;;;;;;;;;5113909;28;20318;-53
2022/04/15 14:40:41;;;;;;;;;;;;;;;;;;5113525;28;19939;-52
2022/04/15 14:43:08;;;;;;;;;;;;;;;;;;5103632;28;19908;-51
2022/04/15 14:45:34;;;;;;;;;;;;;;;;;;5093821;28;19995;-48
2022/04/15 14:48:01;;;;;;;;;;;;;;;;;;5093577;28;19904;-44
2022/04/15 14:50:27;;;;;;;;;;;;;;;;;;5093797;28;19938;-46
2022/04/15 14:52:53;;;;;;;;;;;;;;;;;;5093609;28;19919;-51
2022/04/15 14:55:21;;;;;;;;;;;;;;;;;;5093125;28;19908;-53
2022/04/15 14:57:47;;;;;;;;;;;;;;;;;;5109703;28;20681;-50
2022/04/15 15:00:13;;;;;;;;;;;;;;;;;;5113999;28;19927;-53
2022/04/15 15:02:42;;;;;;;;;;;;;;;;;;5113561;28;19914;-50
2022/04/15 15:05:08;;;;;;;;;;;;;;;;;;5113317;28;19926;-52
2022/04/15 15:07:35;;;;;;;;;;;;;;;;;;5113881;28;19985;-45
2022/04/15 15:10:01;;;;;;;;;;;;;;;;;;5113732;28;19912;-54
2022/04/15 15:12:31;;;;;;;;;;;;;;;;;;5114078;28;19908;-49
2022/04/15 15:14:57;;;;;;;;;;;;;;;;;;5113639;28;19914;-53
2022/04/15 15:17:24;;;;;;;;;;;;;;;;;;5113216;28;19920;-57
2022/04/15 15:19:51;;;;;;;;;;;;;;;;;;5113637;28;19922;-54
2022/04/15 15:22:17;;;;;;;;;;;;;;;;;;5113723;28;19908;-52
2022/04/15 15:30:14;;;;;;;;;;;;;;;;;;5113852;28;19915;-48
2022/04/15 15:32:41;;;;;;;;;;;;;;;;;;5113193;28;19908;-50
2022/04/15 15:35:07;;;;;;;;;;;;;;;;;;5113446;28;19912;-49
2022/04/15 15:37:34;;;;;;;;;;;;;;;;;;5112073;28;19912;-52
2022/04/15 15:40:00;;;;;;;;;;;;;;;;;;5112962;28;19977;-53
2022/04/15 15:42:27;;;;;;;;;;;;;;;;;;5096060;28;19963;-51
2022/04/15 15:44:53;;;;;;;;;;;;;;;;;;5096971;28;19912;-53
2022/04/15 15:47:20;;;;;;;;;;;;;;;;;;5096345;28;19946;-55
2022/04/15 15:49:46;;;;;;;;;;;;;;;;;;5097141;28;19909;-48
2022/04/15 15:52:12;;;;;;;;;;;;;;;;;;5096785;28;19908;-54
2022/04/15 15:54:39;;;;;;;;;;;;;;;;;;5097088;28;19908;-54
2022/04/15 15:57:05;;;;;;;;;;;;;;;;;;5096739;28;19914;-57
2022/04/15 15:59:32;;;;;;;;;;;;;;;;;;5096815;28;19962;-57
2022/04/15 16:02:00;;;;;;;;;;;;;;;;;;5096734;28;19908;-55
2022/04/15 16:04:28;;;;;;;;;;;;;;;;;;5098849;28;19928;-52
2022/04/15 16:06:55;;;;;;;;;;;;;;;;;;5116959;28;19986;-51
2022/04/15 16:09:21;;;;;;;;;;;;;;;;;;5116804;28;19912;-56
2022/04/15 16:11:48;;;;;;;;;;;;;;;;;;5117090;28;19908;-53
2022/04/15 16:14:14;;;;;;;;;;;;;;;;;;5115017;28;19911;-49
2022/04/15 16:16:41;;;;;;;;;;;;;;;;;;5116715;28;19915;-48
2022/04/15 16:19:07;;;;;;;;;;;;;;;;;;5116477;28;19916;-55
2022/04/15 16:21:34;;;;;;;;;;;;;;;;;;5103938;28;19999;-54
2022/04/15 16:24:01;;;;;;;;;;;;;;;;;;5096355;28;20369;-52
2022/04/15 16:26:28;;;;;;;;;;;;;;;;;;5106546;28;19937;-54
2022/04/15 16:28:55;;;;;;;;;;;;;;;;;;5116646;28;19907;-56
2022/04/15 16:31:21;;;;;;;;;;;;;;;;;;5116319;28;19907;-56
2022/04/15 16:33:47;;;;;;;;;;;;;;;;;;5116407;28;19908;-51
2022/04/15 16:36:14;;;;;;;;;;;;;;;;;;5116923;28;19908;-58
2022/04/15 16:38:40;;;;;;;;;;;;;;;;;;5116353;28;19955;-50
2022/04/15 16:41:07;;;;;;;;;;;;;;;;;;5116109;28;19918;-55
2022/04/15 16:43:33;;;;;;;;;;;;;;;;;;5116183;28;19938;-55
2022/04/15 16:46:00;;;;;;;;;;;;;;;;;;5116343;28;20517;-58
2022/04/15 16:48:26;;;;;;;;;;;;;;;;;;5116318;28;19908;-53
2022/04/15 16:50:53;;;;;;;;;;;;;;;;;;5115779;28;19915;-56
2022/04/15 16:53:19;;;;;;;;;;;;;;;;;;5115712;28;20427;-51
2022/04/15 16:58:45;;;;;;;;;;;;;;;;;;5115970;28;19918;-54
2022/04/15 17:01:12;;;;;;;;;;;;;;;;;;5115852;28;19908;-56